createdAt,value
2022-10-23T00:01:44.741Z,16.40
2022-10-23T00:04:19.863Z,17.00
2022-10-23T00:06:53.252Z,15.90
2022-10-23T00:09:27.556Z,15.00
2022-10-23T00:12:00.927Z,15.30
2022-10-23T00:14:34.494Z,14.70
2022-10-23T00:17:07.621Z,15.80
2022-10-23T00:19:40.903Z,16.30
2022-10-23T00:22:14.014Z,14.20
2022-10-23T00:24:47.319Z,15.50
2022-10-23T00:27:20.747Z,14.40
2022-10-23T00:29:54.647Z,14.60
2022-10-23T00:32:28.526Z,15.40
2022-10-23T00:35:02.579Z,15.10
2022-10-23T00:37:36.825Z,16.00
2022-10-23T00:40:12.700Z,14.50
2022-10-23T00:42:45.903Z,14.50
2022-10-23T00:45:24.635Z,15.20
2022-10-23T00:47:59.226Z,15.30
2022-10-23T00:50:34.669Z,15.50
2022-10-23T00:53:09.375Z,15.30
2022-10-23T00:55:47.200Z,17.30
2022-10-23T00:58:21.960Z,15.50
2022-10-23T01:00:57.336Z,15.90
2022-10-23T01:03:31.572Z,15.30
2022-10-23T01:06:13.817Z,16.30
2022-10-23T01:08:52.300Z,17.30
2022-10-23T01:11:31.075Z,15.30
2022-10-23T01:14:09.613Z,16.20
2022-10-23T01:19:39.953Z,15.50
2022-10-23T01:25:07.943Z,16.70
2022-10-23T01:27:46.901Z,15.70
2022-10-23T01:30:20.893Z,15.00
2022-10-23T01:32:59.828Z,17.20
2022-10-23T01:35:39.807Z,16.40
2022-10-23T01:38:18.362Z,16.30
2022-10-23T01:40:57.969Z,16.40
2022-10-23T01:43:34.991Z,16.10
2022-10-23T01:46:12.230Z,16.20
2022-10-23T01:48:51.782Z,17.00
2022-10-23T01:51:28.959Z,16.50
2022-10-23T01:54:12.030Z,16.80
2022-10-23T01:56:51.098Z,16.40
2022-10-23T01:59:33.069Z,16.00
2022-10-23T02:02:08.514Z,15.40
2022-10-23T02:04:48.016Z,16.50
2022-10-23T02:07:21.499Z,16.60
2022-10-23T02:09:54.994Z,18.00
2022-10-23T02:12:37.510Z,17.20
2022-10-23T02:15:15.795Z,18.40
2022-10-23T02:17:57.303Z,16.00
2022-10-23T02:20:37.411Z,17.40
2022-10-23T02:23:18.739Z,16.30
2022-10-23T02:25:58.357Z,19.00
2022-10-23T02:28:40.586Z,18.30
2022-10-23T02:31:19.780Z,18.60
2022-10-23T02:33:54.711Z,17.30
2022-10-23T02:36:28.044Z,17.80
2022-10-23T02:39:01.702Z,18.40
2022-10-23T02:41:43.872Z,19.10
2022-10-23T02:44:38.201Z,21.00
2022-10-23T02:47:23.310Z,17.80
2022-10-23T02:50:05.826Z,19.60
2022-10-23T02:52:48.181Z,18.90
2022-10-23T02:55:30.814Z,20.20
2022-10-23T02:58:10.812Z,20.50
2022-10-23T03:00:53.360Z,20.40
2022-10-23T03:03:33.304Z,20.30
2022-10-23T03:06:07.883Z,19.80
2022-10-23T03:08:51.826Z,19.60
2022-10-23T03:11:25.378Z,20.20
2022-10-23T03:13:58.540Z,21.00
2022-10-23T03:16:32.011Z,20.30
2022-10-23T03:19:05.872Z,19.80
2022-10-23T03:21:39.690Z,17.80
2022-10-23T03:24:14.349Z,18.80
2022-10-23T03:26:49.537Z,20.70
2022-10-23T03:29:23.376Z,20.60
2022-10-23T03:31:57.295Z,20.70
2022-10-23T03:34:30.483Z,18.50
2022-10-23T03:37:03.617Z,18.60
2022-10-23T03:39:38.025Z,17.60
2022-10-23T03:42:11.394Z,20.50
2022-10-23T03:44:44.419Z,20.20
2022-10-23T03:47:18.170Z,19.80
2022-10-23T03:49:51.691Z,17.80
2022-10-23T03:55:03.773Z,18.50
2022-10-23T03:57:37.626Z,19.20
2022-10-23T04:00:13.137Z,22.90
2022-10-23T04:02:54.100Z,18.90
2022-10-23T04:05:27.519Z,19.10
2022-10-23T04:08:02.092Z,19.50
2022-10-23T04:10:35.389Z,20.80
2022-10-23T04:13:08.573Z,19.70
2022-10-23T04:15:42.867Z,19.80
2022-10-23T04:18:16.236Z,19.40
2022-10-23T04:20:51.136Z,19.20
2022-10-23T04:23:24.589Z,18.70
2022-10-23T04:26:01.067Z,20.50
2022-10-23T04:28:34.885Z,21.00
2022-10-23T04:31:08.565Z,19.60
2022-10-23T04:33:41.649Z,19.10
2022-10-23T04:36:15.278Z,17.90
2022-10-23T04:38:49.503Z,17.90
2022-10-23T04:41:23.297Z,18.80
2022-10-23T04:43:56.284Z,18.70
2022-10-23T04:46:29.748Z,19.70
2022-10-23T04:49:03.272Z,19.40
2022-10-23T04:51:56.364Z,20.00
2022-10-23T04:54:49.624Z,18.70
2022-10-23T04:57:49.701Z,18.90
2022-10-23T05:00:27.337Z,18.10
2022-10-23T05:03:02.734Z,19.50
2022-10-23T05:05:42.378Z,18.70
2022-10-23T05:08:36.243Z,18.70
2022-10-23T05:11:45.351Z,19.00
2022-10-23T05:14:22.701Z,17.80
2022-10-23T05:17:01.219Z,17.80
2022-10-23T05:19:41.859Z,20.50
2022-10-23T05:22:16.599Z,19.00
2022-10-23T05:24:59.223Z,18.90
2022-10-23T05:27:33.366Z,18.40
2022-10-23T05:30:09.999Z,18.70
2022-10-23T05:32:45.003Z,20.50
2022-10-23T05:35:23.352Z,21.20
2022-10-23T05:37:59.626Z,19.20
2022-10-23T05:40:33.377Z,19.40
2022-10-23T05:43:11.567Z,20.10
2022-10-23T05:46:09.369Z,19.90
2022-10-23T05:49:06.192Z,20.30
2022-10-23T05:52:02.586Z,20.40
2022-10-23T05:54:56.282Z,19.80
2022-10-23T05:57:47.861Z,19.40
2022-10-23T06:00:25.707Z,17.70
2022-10-23T06:03:05.770Z,18.20
2022-10-23T06:05:42.993Z,18.70
2022-10-23T06:08:28.638Z,18.40
2022-10-23T06:11:06.623Z,18.40
2022-10-23T06:13:40.355Z,16.80
2022-10-23T06:16:15.850Z,15.00
2022-10-23T06:18:50.014Z,16.10
2022-10-23T06:21:24.339Z,17.10
2022-10-23T06:24:00.015Z,17.30
2022-10-23T06:26:38.041Z,16.00
2022-10-23T06:29:14.327Z,16.20
2022-10-23T06:31:49.203Z,15.90
2022-10-23T06:34:23.305Z,16.90
2022-10-23T06:36:56.652Z,16.60
2022-10-23T06:39:53.445Z,16.10
2022-10-23T06:42:47.782Z,16.30
2022-10-23T06:45:39.478Z,15.60
2022-10-23T06:48:19.132Z,16.70
2022-10-23T06:51:14.991Z,17.90
2022-10-23T06:53:49.607Z,18.00
2022-10-23T06:56:43.050Z,14.90
2022-10-23T06:59:17.204Z,14.60
2022-10-23T07:01:50.706Z,16.80
2022-10-23T07:04:24.665Z,16.70
2022-10-23T07:07:00.008Z,17.80
2022-10-23T07:09:40.414Z,17.30
2022-10-23T07:12:23.604Z,16.70
2022-10-23T07:17:34.254Z,15.90
2022-10-23T07:20:08.141Z,17.20
2022-10-23T07:22:42.492Z,17.10
2022-10-23T07:25:20.412Z,18.60
2022-10-23T07:27:55.682Z,18.10
2022-10-23T07:30:30.184Z,16.80
2022-10-23T07:33:04.164Z,16.60
2022-10-23T07:35:58.629Z,14.90
2022-10-23T07:38:34.518Z,16.00
2022-10-23T07:41:11.605Z,15.50
2022-10-23T07:43:45.757Z,16.20
2022-10-23T07:46:19.595Z,17.00
2022-10-23T07:48:54.246Z,16.40
2022-10-23T07:51:28.104Z,15.80
2022-10-23T07:54:05.558Z,14.90
2022-10-23T07:57:05.527Z,15.80
2022-10-23T07:59:52.964Z,16.40
2022-10-23T08:02:26.909Z,16.20
2022-10-23T08:05:00.802Z,15.50
2022-10-23T08:07:41.060Z,15.50
2022-10-23T08:10:15.282Z,15.30
2022-10-23T08:12:49.514Z,17.00
2022-10-23T08:15:23.193Z,15.20
2022-10-23T08:18:00.502Z,16.90
2022-10-23T08:21:05.597Z,16.10
2022-10-23T08:26:10.974Z,13.70
2022-10-23T08:28:44.523Z,15.00
2022-10-23T08:31:20.322Z,15.30
2022-10-23T08:34:08.823Z,16.20
2022-10-23T08:36:42.492Z,15.60
2022-10-23T08:39:15.846Z,15.70
2022-10-23T08:42:01.607Z,15.10
2022-10-23T08:44:38.333Z,16.30
2022-10-23T08:47:17.189Z,18.40
2022-10-23T08:53:17.477Z,15.30
2022-10-23T08:55:57.327Z,17.00
2022-10-23T08:58:37.066Z,17.20
2022-10-23T09:01:39.117Z,17.30
2022-10-23T09:04:14.429Z,16.60
2022-10-23T09:06:54.497Z,16.80
2022-10-23T09:09:50.103Z,16.10
2022-10-23T09:12:25.226Z,16.00
2022-10-23T09:15:15.228Z,15.10
2022-10-23T09:17:50.435Z,16.30
2022-10-23T09:20:26.969Z,15.60
2022-10-23T09:23:05.174Z,15.10
2022-10-23T09:25:42.578Z,14.60
2022-10-23T09:28:21.730Z,14.50
2022-10-23T09:30:56.392Z,14.30
2022-10-23T09:33:30.591Z,14.10
2022-10-23T09:36:06.062Z,13.70
2022-10-23T09:38:41.229Z,14.10
2022-10-23T09:41:19.962Z,13.90
2022-10-23T09:46:46.204Z,14.10
2022-10-23T09:49:24.899Z,14.30
2022-10-23T09:54:38.494Z,13.90
2022-10-23T09:57:24.470Z,14.40
2022-10-23T10:00:00.834Z,15.10
2022-10-23T10:02:37.234Z,14.30
2022-10-23T10:05:26.736Z,14.00
2022-10-23T10:08:05.797Z,14.80
2022-10-23T10:10:47.486Z,13.80
2022-10-23T10:13:39.862Z,13.70
2022-10-23T10:16:24.703Z,14.40
2022-10-23T10:19:05.614Z,14.60
2022-10-23T10:21:45.528Z,14.80
2022-10-23T10:24:24.213Z,12.60
2022-10-23T10:29:50.201Z,12.10
2022-10-23T10:32:37.270Z,12.90
2022-10-23T10:35:25.156Z,12.20
2022-10-23T10:38:15.232Z,11.70
2022-10-23T10:41:02.831Z,11.10
2022-10-23T10:43:45.585Z,11.90
2022-10-23T10:46:28.891Z,11.70
2022-10-23T10:49:06.407Z,10.70
2022-10-23T10:51:49.385Z,10.70
2022-10-23T10:54:41.391Z,11.20
2022-10-23T10:57:26.615Z,11.00
2022-10-23T11:00:05.145Z,11.10
2022-10-23T11:02:45.490Z,10.30
2022-10-23T11:05:27.583Z,10.20
2022-10-23T11:08:05.650Z,11.10
2022-10-23T11:10:44.475Z,11.20
2022-10-23T11:13:29.517Z,10.80
2022-10-23T11:16:10.719Z,10.30
2022-10-23T11:18:47.366Z,10.60
2022-10-23T11:21:32.409Z,10.70
2022-10-23T11:24:58.216Z,10.90
2022-10-23T11:27:48.694Z,11.20
2022-10-23T11:30:34.231Z,10.50
2022-10-23T11:33:39.243Z,10.60
2022-10-23T11:36:20.274Z,11.50
2022-10-23T11:39:00.200Z,11.40
2022-10-23T11:41:35.457Z,11.40
2022-10-23T11:44:41.854Z,11.90
2022-10-23T11:47:39.257Z,12.80
2022-10-23T11:50:33.525Z,10.20
2022-10-23T11:53:25.156Z,11.70
2022-10-23T11:56:25.482Z,11.50
2022-10-23T11:59:01.179Z,10.80
2022-10-23T12:01:39.173Z,11.10
2022-10-23T12:04:23.574Z,10.20
2022-10-23T12:07:00.818Z,10.30
2022-10-23T12:09:42.068Z,10.20
2022-10-23T12:12:29.700Z,11.10
2022-10-23T12:15:26.496Z,10.00
2022-10-23T12:18:16.502Z,10.50
2022-10-23T12:20:53.206Z,10.50
2022-10-23T12:23:48.047Z,10.50
2022-10-23T12:26:50.930Z,11.20
2022-10-23T12:29:37.662Z,10.90
2022-10-23T12:32:30.199Z,11.60
2022-10-23T12:35:20.512Z,12.10
2022-10-23T12:38:14.829Z,11.80
2022-10-23T12:40:53.251Z,12.60
2022-10-23T12:43:31.767Z,10.60
2022-10-23T12:46:20.485Z,12.20
2022-10-23T12:48:57.016Z,13.20
2022-10-23T12:51:32.590Z,12.50
2022-10-23T12:54:16.182Z,12.30
2022-10-23T12:56:50.270Z,12.00
2022-10-23T12:59:27.129Z,11.60
2022-10-23T13:02:02.326Z,12.20
2022-10-23T13:04:38.932Z,12.00
2022-10-23T13:07:13.692Z,12.10
2022-10-23T13:09:49.366Z,11.70
2022-10-23T13:12:29.808Z,12.10
2022-10-23T13:15:16.294Z,11.80
2022-10-23T13:18:01.923Z,12.90
2022-10-23T13:20:38.190Z,13.30
2022-10-23T13:23:21.058Z,13.40
2022-10-23T13:25:59.629Z,12.80
2022-10-23T13:28:36.974Z,12.40
2022-10-23T13:34:21.288Z,12.40
2022-10-23T13:36:59.686Z,13.50
2022-10-23T13:42:15.487Z,13.90
2022-10-23T13:44:49.637Z,12.90
2022-10-23T13:47:23.472Z,13.10
2022-10-23T13:49:57.468Z,14.00
2022-10-23T13:52:31.332Z,14.00
2022-10-23T13:55:06.217Z,13.80
2022-10-23T13:57:39.786Z,14.10
2022-10-23T14:00:17.174Z,13.00
2022-10-23T14:02:50.536Z,12.90
2022-10-23T14:05:25.277Z,13.60
2022-10-23T14:07:58.567Z,13.90
2022-10-23T14:10:31.771Z,13.90
2022-10-23T14:13:05.138Z,14.00
2022-10-23T14:15:38.416Z,13.90
2022-10-23T14:18:11.757Z,13.50
2022-10-23T14:20:45.804Z,13.30
2022-10-23T14:23:18.917Z,13.20
2022-10-23T14:25:53.150Z,13.70
2022-10-23T14:28:26.649Z,13.70
2022-10-23T14:30:59.707Z,12.50
2022-10-23T14:33:32.901Z,13.60
2022-10-23T14:36:06.956Z,13.40
2022-10-23T14:38:40.707Z,13.10
2022-10-23T14:41:19.293Z,13.30
2022-10-23T14:43:53.228Z,14.50
2022-10-23T14:46:28.221Z,14.00
2022-10-23T14:49:02.587Z,13.60
2022-10-23T14:51:36.151Z,13.00
2022-10-23T14:54:11.890Z,13.10
2022-10-23T14:56:45.981Z,12.70
2022-10-23T14:59:20.103Z,11.90
2022-10-23T15:04:31.905Z,12.60
2022-10-23T15:07:06.314Z,11.80
2022-10-23T15:09:40.393Z,11.90
2022-10-23T15:12:13.895Z,11.10
2022-10-23T15:14:47.093Z,10.90
2022-10-23T15:17:20.325Z,11.30
2022-10-23T15:19:54.395Z,12.50
2022-10-23T15:22:27.438Z,12.70
2022-10-23T15:25:00.607Z,13.00
2022-10-23T15:27:35.311Z,13.10
2022-10-23T15:30:11.443Z,12.60
2022-10-23T15:32:44.808Z,12.30
2022-10-23T15:35:18.818Z,12.10
2022-10-23T15:37:55.785Z,13.20
2022-10-23T15:40:29.068Z,14.00
2022-10-23T15:43:02.478Z,13.40
2022-10-23T15:45:36.304Z,13.40
2022-10-23T15:48:11.590Z,14.00
2022-10-23T15:50:45.201Z,13.10
2022-10-23T15:53:19.342Z,13.40
2022-10-23T15:55:52.373Z,13.70
2022-10-23T15:58:25.410Z,15.00
2022-10-23T16:00:59.490Z,14.10
2022-10-23T16:03:32.490Z,18.40
2022-10-23T16:06:09.999Z,13.90
2022-10-23T16:08:44.265Z,13.40
2022-10-23T16:11:20.318Z,12.60
2022-10-23T16:13:54.111Z,13.60
2022-10-23T16:16:29.481Z,13.00
2022-10-23T16:19:06.359Z,14.00
2022-10-23T16:21:40.938Z,13.00
2022-10-23T16:24:15.376Z,12.80
2022-10-23T16:26:53.481Z,13.50
2022-10-23T16:29:29.698Z,12.70
2022-10-23T16:32:03.730Z,14.20
2022-10-23T16:34:37.406Z,14.60
2022-10-23T16:37:11.733Z,15.30
2022-10-23T16:40:20.428Z,15.70
2022-10-23T16:43:23.511Z,14.60
2022-10-23T16:46:10.071Z,14.40
2022-10-23T16:48:44.675Z,15.00
2022-10-23T16:51:20.291Z,14.30
2022-10-23T16:53:54.651Z,16.00
2022-10-23T16:56:31.352Z,14.90
2022-10-23T16:59:06.369Z,17.20
2022-10-23T17:01:44.167Z,20.80
2022-10-23T17:04:18.163Z,19.20
2022-10-23T17:06:52.602Z,19.50
2022-10-23T17:09:28.513Z,18.80
2022-10-23T17:12:02.395Z,19.70
2022-10-23T17:14:36.898Z,17.90
2022-10-23T17:17:14.469Z,17.20
2022-10-23T17:19:48.539Z,17.40
2022-10-23T17:22:23.049Z,18.30
2022-10-23T17:24:58.217Z,17.20
2022-10-23T17:27:32.648Z,17.60
2022-10-23T17:30:12.410Z,17.70
2022-10-23T17:32:48.939Z,17.10
2022-10-23T17:35:24.076Z,16.60
2022-10-23T17:37:59.540Z,16.10
2022-10-23T17:40:36.996Z,16.20
2022-10-23T17:43:16.893Z,17.60
2022-10-23T17:45:51.468Z,17.60
2022-10-23T17:48:25.629Z,18.40
2022-10-23T17:51:10.174Z,16.70
2022-10-23T17:53:48.950Z,16.80
2022-10-23T17:56:26.415Z,16.90
2022-10-23T17:59:04.777Z,15.80
2022-10-23T18:01:39.278Z,17.60
2022-10-23T18:04:14.535Z,25.10
2022-10-23T18:06:51.338Z,17.90
2022-10-23T18:09:25.591Z,18.00
2022-10-23T18:12:06.934Z,18.80
